sensor_id;sensor_type;location;lat;lon;timestamp;temperature;humidity
27026;DHT22;14565;48.626;8.978;2023-12-22T00:01:11;6.30;99.90
27026;DHT22;14565;48.626;8.978;2023-12-22T00:03:41;6.30;99.90
27026;DHT22;14565;48.626;8.978;2023-12-22T00:06:06;6.30;99.90
27026;DHT22;14565;48.626;8.978;2023-12-22T00:08:32;6.30;99.90
27026;DHT22;14565;48.626;8.978;2023-12-22T00:10:58;6.30;99.90
27026;DHT22;14565;48.626;8.978;2023-12-22T00:13:24;6.30;99.90
27026;DHT22;14565;48.626;8.978;2023-12-22T00:15:50;6.30;99.90
27026;DHT22;14565;48.626;8.978;2023-12-22T00:18:15;6.40;99.90
27026;DHT22;14565;48.626;8.978;2023-12-22T00:20:41;6.40;99.90
27026;DHT22;14565;48.626;8.978;2023-12-22T00:23:07;6.30;99.90
27026;DHT22;14565;48.626;8.978;2023-12-22T00:25:32;6.40;99.90
27026;DHT22;14565;48.626;8.978;2023-12-22T00:27:58;6.40;99.90
27026;DHT22;14565;48.626;8.978;2023-12-22T00:30:23;6.30;99.90
27026;DHT22;14565;48.626;8.978;2023-12-22T00:32:50;6.30;99.90
27026;DHT22;14565;48.626;8.978;2023-12-22T00:35:15;6.40;99.90
27026;DHT22;14565;48.626;8.978;2023-12-22T00:37:41;6.40;99.90
27026;DHT22;14565;48.626;8.978;2023-12-22T00:40:07;6.40;99.90
27026;DHT22;14565;48.626;8.978;2023-12-22T00:42:34;6.40;99.90
27026;DHT22;14565;48.626;8.978;2023-12-22T00:45:00;6.40;99.90
27026;DHT22;14565;48.626;8.978;2023-12-22T00:47:26;6.40;99.90
27026;DHT22;14565;48.626;8.978;2023-12-22T00:49:51;6.40;99.90
27026;DHT22;14565;48.626;8.978;2023-12-22T00:52:17;6.40;99.90
27026;DHT22;14565;48.626;8.978;2023-12-22T00:54:43;6.40;99.90
27026;DHT22;14565;48.626;8.978;2023-12-22T00:57:08;6.40;99.90
27026;DHT22;14565;48.626;8.978;2023-12-22T00:59:34;6.40;99.90
27026;DHT22;14565;48.626;8.978;2023-12-22T01:01:59;6.40;99.90
27026;DHT22;14565;48.626;8.978;2023-12-22T01:04:25;6.40;99.90
27026;DHT22;14565;48.626;8.978;2023-12-22T01:06:51;6.30;99.90
27026;DHT22;14565;48.626;8.978;2023-12-22T01:09:17;6.40;99.90
27026;DHT22;14565;48.626;8.978;2023-12-22T01:11:45;6.40;99.90
27026;DHT22;14565;48.626;8.978;2023-12-22T01:14:11;6.40;99.90
27026;DHT22;14565;48.626;8.978;2023-12-22T01:16:39;6.30;99.90
27026;DHT22;14565;48.626;8.978;2023-12-22T01:19:04;6.20;99.90
27026;DHT22;14565;48.626;8.978;2023-12-22T01:21:30;6.20;99.90
27026;DHT22;14565;48.626;8.978;2023-12-22T01:23:56;6.20;99.90
27026;DHT22;14565;48.626;8.978;2023-12-22T01:26:24;6.10;99.90
27026;DHT22;14565;48.626;8.978;2023-12-22T01:28:49;6.00;99.90
27026;DHT22;14565;48.626;8.978;2023-12-22T01:31:15;6.10;99.90
27026;DHT22;14565;48.626;8.978;2023-12-22T01:33:40;6.00;99.90
27026;DHT22;14565;48.626;8.978;2023-12-22T01:36:06;6.00;99.90
27026;DHT22;14565;48.626;8.978;2023-12-22T01:38:32;5.90;99.90
27026;DHT22;14565;48.626;8.978;2023-12-22T01:40:57;5.80;99.90
27026;DHT22;14565;48.626;8.978;2023-12-22T01:43:23;5.80;99.90
27026;DHT22;14565;48.626;8.978;2023-12-22T01:45:52;5.70;99.90
27026;DHT22;14565;48.626;8.978;2023-12-22T01:48:21;5.70;99.90
27026;DHT22;14565;48.626;8.978;2023-12-22T01:50:52;5.70;99.90
27026;DHT22;14565;48.626;8.978;2023-12-22T01:53:22;5.70;99.90
27026;DHT22;14565;48.626;8.978;2023-12-22T01:55:50;5.70;99.90
27026;DHT22;14565;48.626;8.978;2023-12-22T01:58:20;5.70;99.90
27026;DHT22;14565;48.626;8.978;2023-12-22T02:00:47;5.70;99.90
27026;DHT22;14565;48.626;8.978;2023-12-22T02:03:13;5.70;99.90
27026;DHT22;14565;48.626;8.978;2023-12-22T02:05:41;5.70;99.90
27026;DHT22;14565;48.626;8.978;2023-12-22T02:08:07;5.70;99.90
27026;DHT22;14565;48.626;8.978;2023-12-22T02:10:33;5.80;99.90
27026;DHT22;14565;48.626;8.978;2023-12-22T02:12:58;5.80;99.90
27026;DHT22;14565;48.626;8.978;2023-12-22T02:15:24;5.90;99.90
27026;DHT22;14565;48.626;8.978;2023-12-22T02:18:07;5.90;99.90
27026;DHT22;14565;48.626;8.978;2023-12-22T02:20:34;5.90;99.90
27026;DHT22;14565;48.626;8.978;2023-12-22T02:23:00;5.90;99.90
27026;DHT22;14565;48.626;8.978;2023-12-22T02:25:26;5.90;99.90
27026;DHT22;14565;48.626;8.978;2023-12-22T02:28:01;5.90;99.90
27026;DHT22;14565;48.626;8.978;2023-12-22T02:33:17;5.90;99.90
27026;DHT22;14565;48.626;8.978;2023-12-22T02:35:44;5.90;99.90
27026;DHT22;14565;48.626;8.978;2023-12-22T02:38:12;5.90;99.90
27026;DHT22;14565;48.626;8.978;2023-12-22T02:40:38;5.90;99.90
27026;DHT22;14565;48.626;8.978;2023-12-22T02:43:05;6.00;99.90
27026;DHT22;14565;48.626;8.978;2023-12-22T02:45:32;6.00;99.90
27026;DHT22;14565;48.626;8.978;2023-12-22T02:47:58;6.20;99.90
27026;DHT22;14565;48.626;8.978;2023-12-22T02:50:24;6.10;99.90
27026;DHT22;14565;48.626;8.978;2023-12-22T02:52:49;6.10;99.90
27026;DHT22;14565;48.626;8.978;2023-12-22T02:55:15;6.10;99.90
27026;DHT22;14565;48.626;8.978;2023-12-22T02:57:41;6.10;99.90
27026;DHT22;14565;48.626;8.978;2023-12-22T03:00:07;6.10;99.90
27026;DHT22;14565;48.626;8.978;2023-12-22T03:02:32;6.10;99.90
27026;DHT22;14565;48.626;8.978;2023-12-22T03:04:58;6.00;99.90
27026;DHT22;14565;48.626;8.978;2023-12-22T03:07:24;6.00;99.90
27026;DHT22;14565;48.626;8.978;2023-12-22T03:09:49;6.00;99.90
27026;DHT22;14565;48.626;8.978;2023-12-22T03:12:15;6.00;99.90
27026;DHT22;14565;48.626;8.978;2023-12-22T03:14:41;6.00;99.90
27026;DHT22;14565;48.626;8.978;2023-12-22T03:17:06;5.90;99.90
27026;DHT22;14565;48.626;8.978;2023-12-22T03:19:33;6.00;99.90
27026;DHT22;14565;48.626;8.978;2023-12-22T03:21:59;6.00;99.90
27026;DHT22;14565;48.626;8.978;2023-12-22T03:24:25;6.00;99.90
27026;DHT22;14565;48.626;8.978;2023-12-22T03:26:51;6.10;99.90
27026;DHT22;14565;48.626;8.978;2023-12-22T03:29:18;6.00;99.90
27026;DHT22;14565;48.626;8.978;2023-12-22T03:31:44;6.00;99.90
27026;DHT22;14565;48.626;8.978;2023-12-22T03:34:10;6.10;99.90
27026;DHT22;14565;48.626;8.978;2023-12-22T03:36:35;6.10;99.90
27026;DHT22;14565;48.626;8.978;2023-12-22T03:39:01;6.10;99.90
27026;DHT22;14565;48.626;8.978;2023-12-22T03:41:28;6.10;99.90
27026;DHT22;14565;48.626;8.978;2023-12-22T03:43:55;6.10;99.90
27026;DHT22;14565;48.626;8.978;2023-12-22T03:46:20;6.10;99.90
27026;DHT22;14565;48.626;8.978;2023-12-22T03:48:46;6.20;99.90
27026;DHT22;14565;48.626;8.978;2023-12-22T03:51:12;6.20;99.90
27026;DHT22;14565;48.626;8.978;2023-12-22T03:53:40;6.20;99.90
27026;DHT22;14565;48.626;8.978;2023-12-22T03:56:07;6.30;99.90
27026;DHT22;14565;48.626;8.978;2023-12-22T03:58:37;6.20;99.90
27026;DHT22;14565;48.626;8.978;2023-12-22T04:01:03;6.20;99.90
27026;DHT22;14565;48.626;8.978;2023-12-22T04:03:28;6.20;99.90
27026;DHT22;14565;48.626;8.978;2023-12-22T04:05:54;6.10;99.90
27026;DHT22;14565;48.626;8.978;2023-12-22T04:08:20;6.10;99.90
27026;DHT22;14565;48.626;8.978;2023-12-22T04:10:49;6.10;99.90
27026;DHT22;14565;48.626;8.978;2023-12-22T04:13:14;6.10;99.90
27026;DHT22;14565;48.626;8.978;2023-12-22T04:15:40;6.20;99.90
27026;DHT22;14565;48.626;8.978;2023-12-22T04:18:06;6.20;99.90
27026;DHT22;14565;48.626;8.978;2023-12-22T04:20:31;6.20;99.90
27026;DHT22;14565;48.626;8.978;2023-12-22T04:22:57;6.20;99.90
27026;DHT22;14565;48.626;8.978;2023-12-22T04:25:23;6.20;99.90
27026;DHT22;14565;48.626;8.978;2023-12-22T04:27:50;6.20;99.90
27026;DHT22;14565;48.626;8.978;2023-12-22T04:30:15;6.20;99.90
27026;DHT22;14565;48.626;8.978;2023-12-22T04:32:41;6.20;99.90
27026;DHT22;14565;48.626;8.978;2023-12-22T04:35:07;6.20;99.90
27026;DHT22;14565;48.626;8.978;2023-12-22T04:37:33;6.10;99.90
27026;DHT22;14565;48.626;8.978;2023-12-22T04:39:58;5.90;99.90
27026;DHT22;14565;48.626;8.978;2023-12-22T04:42:24;5.90;99.90
27026;DHT22;14565;48.626;8.978;2023-12-22T04:44:51;5.80;99.90
27026;DHT22;14565;48.626;8.978;2023-12-22T04:47:17;5.70;99.90
27026;DHT22;14565;48.626;8.978;2023-12-22T04:49:42;5.70;99.90
27026;DHT22;14565;48.626;8.978;2023-12-22T04:52:08;5.70;99.90
27026;DHT22;14565;48.626;8.978;2023-12-22T04:54:34;5.80;99.90
27026;DHT22;14565;48.626;8.978;2023-12-22T04:56:59;5.70;99.90
27026;DHT22;14565;48.626;8.978;2023-12-22T04:59:25;5.60;99.90
27026;DHT22;14565;48.626;8.978;2023-12-22T05:01:51;5.60;99.90
27026;DHT22;14565;48.626;8.978;2023-12-22T05:04:16;5.60;99.90
27026;DHT22;14565;48.626;8.978;2023-12-22T05:06:43;5.60;99.90
27026;DHT22;14565;48.626;8.978;2023-12-22T05:09:08;5.60;99.90
27026;DHT22;14565;48.626;8.978;2023-12-22T05:11:34;5.60;99.90
27026;DHT22;14565;48.626;8.978;2023-12-22T05:14:00;5.70;99.90
27026;DHT22;14565;48.626;8.978;2023-12-22T05:16:26;5.60;99.90
27026;DHT22;14565;48.626;8.978;2023-12-22T05:18:51;5.80;99.90
27026;DHT22;14565;48.626;8.978;2023-12-22T05:21:17;5.80;99.90
27026;DHT22;14565;48.626;8.978;2023-12-22T05:23:42;5.90;99.90
27026;DHT22;14565;48.626;8.978;2023-12-22T05:26:08;5.90;99.90
27026;DHT22;14565;48.626;8.978;2023-12-22T05:28:34;5.80;99.90
27026;DHT22;14565;48.626;8.978;2023-12-22T05:30:59;5.80;99.90
27026;DHT22;14565;48.626;8.978;2023-12-22T05:33:25;5.90;99.90
27026;DHT22;14565;48.626;8.978;2023-12-22T05:35:51;5.90;99.90
27026;DHT22;14565;48.626;8.978;2023-12-22T05:38:17;6.00;99.90
27026;DHT22;14565;48.626;8.978;2023-12-22T05:40:42;6.00;99.90
27026;DHT22;14565;48.626;8.978;2023-12-22T05:43:08;6.00;99.90
27026;DHT22;14565;48.626;8.978;2023-12-22T05:45:33;6.00;99.90
27026;DHT22;14565;48.626;8.978;2023-12-22T05:47:59;6.10;99.90
27026;DHT22;14565;48.626;8.978;2023-12-22T05:50:25;6.00;99.90
27026;DHT22;14565;48.626;8.978;2023-12-22T05:52:51;6.10;99.90
27026;DHT22;14565;48.626;8.978;2023-12-22T05:55:17;6.10;99.90
27026;DHT22;14565;48.626;8.978;2023-12-22T05:57:42;6.30;99.90
27026;DHT22;14565;48.626;8.978;2023-12-22T06:00:08;6.20;99.90
27026;DHT22;14565;48.626;8.978;2023-12-22T06:02:36;6.20;99.90
27026;DHT22;14565;48.626;8.978;2023-12-22T06:05:02;6.30;99.90
27026;DHT22;14565;48.626;8.978;2023-12-22T06:07:27;6.20;99.90
27026;DHT22;14565;48.626;8.978;2023-12-22T06:09:53;6.20;99.90
27026;DHT22;14565;48.626;8.978;2023-12-22T06:12:19;6.20;99.90
27026;DHT22;14565;48.626;8.978;2023-12-22T06:14:44;6.20;99.90
27026;DHT22;14565;48.626;8.978;2023-12-22T06:17:10;6.30;99.90
27026;DHT22;14565;48.626;8.978;2023-12-22T06:19:36;6.30;99.90
27026;DHT22;14565;48.626;8.978;2023-12-22T06:22:02;6.20;99.90
27026;DHT22;14565;48.626;8.978;2023-12-22T06:24:28;6.20;99.90
27026;DHT22;14565;48.626;8.978;2023-12-22T06:26:53;6.10;99.90
27026;DHT22;14565;48.626;8.978;2023-12-22T06:29:19;6.10;99.90
27026;DHT22;14565;48.626;8.978;2023-12-22T06:31:45;6.00;99.90
27026;DHT22;14565;48.626;8.978;2023-12-22T06:34:11;5.90;99.90
27026;DHT22;14565;48.626;8.978;2023-12-22T06:36:37;5.80;99.90
27026;DHT22;14565;48.626;8.978;2023-12-22T06:39:02;5.80;99.90
27026;DHT22;14565;48.626;8.978;2023-12-22T06:41:30;5.70;99.90
27026;DHT22;14565;48.626;8.978;2023-12-22T06:43:56;5.70;99.90
27026;DHT22;14565;48.626;8.978;2023-12-22T06:46:24;5.70;99.90
27026;DHT22;14565;48.626;8.978;2023-12-22T06:48:53;5.60;99.90
27026;DHT22;14565;48.626;8.978;2023-12-22T06:51:23;5.50;99.90
27026;DHT22;14565;48.626;8.978;2023-12-22T06:53:50;5.60;99.90
27026;DHT22;14565;48.626;8.978;2023-12-22T06:56:19;5.60;99.90
27026;DHT22;14565;48.626;8.978;2023-12-22T06:58:46;5.70;99.90
27026;DHT22;14565;48.626;8.978;2023-12-22T07:01:18;5.70;99.90
27026;DHT22;14565;48.626;8.978;2023-12-22T07:03:45;5.70;99.90
27026;DHT22;14565;48.626;8.978;2023-12-22T07:06:11;5.80;99.90
27026;DHT22;14565;48.626;8.978;2023-12-22T07:08:37;5.70;99.90
27026;DHT22;14565;48.626;8.978;2023-12-22T07:11:02;5.80;99.90
27026;DHT22;14565;48.626;8.978;2023-12-22T07:13:28;5.80;99.90
27026;DHT22;14565;48.626;8.978;2023-12-22T07:15:53;5.70;99.90
27026;DHT22;14565;48.626;8.978;2023-12-22T07:18:19;5.70;99.90
27026;DHT22;14565;48.626;8.978;2023-12-22T07:20:44;5.70;99.90
27026;DHT22;14565;48.626;8.978;2023-12-22T07:23:10;5.70;99.90
27026;DHT22;14565;48.626;8.978;2023-12-22T07:25:37;5.80;99.90
27026;DHT22;14565;48.626;8.978;2023-12-22T07:28:04;5.80;99.90
27026;DHT22;14565;48.626;8.978;2023-12-22T07:30:30;5.80;99.90
27026;DHT22;14565;48.626;8.978;2023-12-22T07:32:55;5.70;99.90
27026;DHT22;14565;48.626;8.978;2023-12-22T07:35:21;5.80;99.90
27026;DHT22;14565;48.626;8.978;2023-12-22T07:37:46;5.80;99.90
27026;DHT22;14565;48.626;8.978;2023-12-22T07:40:12;5.80;99.90
27026;DHT22;14565;48.626;8.978;2023-12-22T07:42:38;5.70;99.90
27026;DHT22;14565;48.626;8.978;2023-12-22T07:45:04;5.70;99.90
27026;DHT22;14565;48.626;8.978;2023-12-22T07:47:31;5.70;99.90
27026;DHT22;14565;48.626;8.978;2023-12-22T07:49:57;5.70;99.90
27026;DHT22;14565;48.626;8.978;2023-12-22T07:52:22;5.70;99.90
27026;DHT22;14565;48.626;8.978;2023-12-22T07:54:49;5.60;99.90
27026;DHT22;14565;48.626;8.978;2023-12-22T07:57:14;5.70;99.90
27026;DHT22;14565;48.626;8.978;2023-12-22T07:59:40;5.70;99.90
27026;DHT22;14565;48.626;8.978;2023-12-22T08:02:06;5.80;99.90
27026;DHT22;14565;48.626;8.978;2023-12-22T08:04:32;5.80;99.90
27026;DHT22;14565;48.626;8.978;2023-12-22T08:06:57;5.90;99.90
27026;DHT22;14565;48.626;8.978;2023-12-22T08:09:24;6.00;99.90
27026;DHT22;14565;48.626;8.978;2023-12-22T08:11:50;6.10;99.90
27026;DHT22;14565;48.626;8.978;2023-12-22T08:14:18;6.10;99.90
27026;DHT22;14565;48.626;8.978;2023-12-22T08:16:44;6.10;99.90
27026;DHT22;14565;48.626;8.978;2023-12-22T08:19:10;6.10;99.90
27026;DHT22;14565;48.626;8.978;2023-12-22T08:21:36;6.10;99.90
27026;DHT22;14565;48.626;8.978;2023-12-22T08:24:03;6.30;99.90
27026;DHT22;14565;48.626;8.978;2023-12-22T08:26:28;6.30;99.90
27026;DHT22;14565;48.626;8.978;2023-12-22T08:28:54;6.30;99.90
27026;DHT22;14565;48.626;8.978;2023-12-22T08:31:20;6.40;99.90
27026;DHT22;14565;48.626;8.978;2023-12-22T08:33:45;6.40;99.90
27026;DHT22;14565;48.626;8.978;2023-12-22T08:36:12;6.40;99.90
27026;DHT22;14565;48.626;8.978;2023-12-22T08:38:38;6.40;99.90
27026;DHT22;14565;48.626;8.978;2023-12-22T08:41:09;6.40;99.90
27026;DHT22;14565;48.626;8.978;2023-12-22T08:43:36;6.40;99.90
27026;DHT22;14565;48.626;8.978;2023-12-22T08:46:03;6.30;99.90
27026;DHT22;14565;48.626;8.978;2023-12-22T08:48:29;6.40;99.90
27026;DHT22;14565;48.626;8.978;2023-12-22T08:50:55;6.40;99.90
27026;DHT22;14565;48.626;8.978;2023-12-22T08:53:21;6.40;99.90
27026;DHT22;14565;48.626;8.978;2023-12-22T08:55:46;6.20;99.90
27026;DHT22;14565;48.626;8.978;2023-12-22T08:58:12;6.40;99.90
27026;DHT22;14565;48.626;8.978;2023-12-22T09:00:37;6.30;99.90
27026;DHT22;14565;48.626;8.978;2023-12-22T09:03:04;6.50;99.90
27026;DHT22;14565;48.626;8.978;2023-12-22T09:05:30;6.50;99.90
27026;DHT22;14565;48.626;8.978;2023-12-22T09:07:55;6.60;99.90
27026;DHT22;14565;48.626;8.978;2023-12-22T09:10:21;6.60;99.90
27026;DHT22;14565;48.626;8.978;2023-12-22T09:12:47;6.50;99.90
27026;DHT22;14565;48.626;8.978;2023-12-22T09:15:13;6.50;99.90
27026;DHT22;14565;48.626;8.978;2023-12-22T09:17:41;6.50;99.90
27026;DHT22;14565;48.626;8.978;2023-12-22T09:20:08;6.40;99.90
27026;DHT22;14565;48.626;8.978;2023-12-22T09:22:35;6.40;99.90
27026;DHT22;14565;48.626;8.978;2023-12-22T09:25:01;6.40;99.90
27026;DHT22;14565;48.626;8.978;2023-12-22T09:27:27;6.50;99.90
27026;DHT22;14565;48.626;8.978;2023-12-22T09:29:55;6.50;99.90
27026;DHT22;14565;48.626;8.978;2023-12-22T09:32:21;6.40;99.90
27026;DHT22;14565;48.626;8.978;2023-12-22T09:34:46;6.40;99.90
27026;DHT22;14565;48.626;8.978;2023-12-22T09:37:12;6.50;99.90
27026;DHT22;14565;48.626;8.978;2023-12-22T09:39:40;6.50;99.90
27026;DHT22;14565;48.626;8.978;2023-12-22T09:42:05;6.50;99.90
27026;DHT22;14565;48.626;8.978;2023-12-22T09:44:32;6.50;99.90
27026;DHT22;14565;48.626;8.978;2023-12-22T09:47:03;6.40;99.90
27026;DHT22;14565;48.626;8.978;2023-12-22T09:49:32;6.40;99.90
27026;DHT22;14565;48.626;8.978;2023-12-22T09:51:59;6.40;99.90
27026;DHT22;14565;48.626;8.978;2023-12-22T09:54:30;6.40;99.90
27026;DHT22;14565;48.626;8.978;2023-12-22T09:56:57;6.50;99.90
27026;DHT22;14565;48.626;8.978;2023-12-22T09:59:24;6.50;99.90
27026;DHT22;14565;48.626;8.978;2023-12-22T10:01:52;6.50;99.90
27026;DHT22;14565;48.626;8.978;2023-12-22T10:04:20;6.60;99.90
27026;DHT22;14565;48.626;8.978;2023-12-22T10:06:47;6.60;99.90
27026;DHT22;14565;48.626;8.978;2023-12-22T10:09:17;6.60;99.90
27026;DHT22;14565;48.626;8.978;2023-12-22T10:11:44;6.60;99.90
27026;DHT22;14565;48.626;8.978;2023-12-22T10:14:12;6.50;99.90
27026;DHT22;14565;48.626;8.978;2023-12-22T10:16:39;6.60;99.90
27026;DHT22;14565;48.626;8.978;2023-12-22T10:19:05;6.50;99.90
27026;DHT22;14565;48.626;8.978;2023-12-22T10:21:32;6.70;99.90
27026;DHT22;14565;48.626;8.978;2023-12-22T10:23:57;6.70;99.90
27026;DHT22;14565;48.626;8.978;2023-12-22T10:26:23;6.70;99.90
27026;DHT22;14565;48.626;8.978;2023-12-22T10:28:49;6.60;99.90
27026;DHT22;14565;48.626;8.978;2023-12-22T10:31:15;6.70;99.90
27026;DHT22;14565;48.626;8.978;2023-12-22T10:33:43;6.70;99.90
27026;DHT22;14565;48.626;8.978;2023-12-22T10:36:09;6.60;99.90
27026;DHT22;14565;48.626;8.978;2023-12-22T10:38:36;6.80;99.90
27026;DHT22;14565;48.626;8.978;2023-12-22T10:41:06;6.60;99.90
27026;DHT22;14565;48.626;8.978;2023-12-22T10:43:40;6.60;99.90
27026;DHT22;14565;48.626;8.978;2023-12-22T10:46:07;6.60;99.90
27026;DHT22;14565;48.626;8.978;2023-12-22T10:48:37;6.60;99.90
27026;DHT22;14565;48.626;8.978;2023-12-22T10:51:03;6.50;99.90
27026;DHT22;14565;48.626;8.978;2023-12-22T10:53:34;6.50;99.90
27026;DHT22;14565;48.626;8.978;2023-12-22T10:56:00;6.40;99.90
27026;DHT22;14565;48.626;8.978;2023-12-22T10:58:28;6.40;99.90
27026;DHT22;14565;48.626;8.978;2023-12-22T11:00:54;6.40;99.90
27026;DHT22;14565;48.626;8.978;2023-12-22T11:03:23;6.40;99.90
27026;DHT22;14565;48.626;8.978;2023-12-22T11:05:51;6.30;99.90
27026;DHT22;14565;48.626;8.978;2023-12-22T11:08:19;6.30;99.90
27026;DHT22;14565;48.626;8.978;2023-12-22T11:10:52;6.20;99.90
27026;DHT22;14565;48.626;8.978;2023-12-22T11:13:20;6.20;99.90
27026;DHT22;14565;48.626;8.978;2023-12-22T11:15:49;6.20;99.90
27026;DHT22;14565;48.626;8.978;2023-12-22T11:18:15;6.20;99.90
27026;DHT22;14565;48.626;8.978;2023-12-22T11:20:43;6.20;99.90
27026;DHT22;14565;48.626;8.978;2023-12-22T11:23:10;6.20;99.90
27026;DHT22;14565;48.626;8.978;2023-12-22T11:25:37;6.10;99.90
27026;DHT22;14565;48.626;8.978;2023-12-22T11:28:04;6.10;99.90
27026;DHT22;14565;48.626;8.978;2023-12-22T11:30:31;6.10;99.90
27026;DHT22;14565;48.626;8.978;2023-12-22T11:32:58;6.10;99.90
27026;DHT22;14565;48.626;8.978;2023-12-22T11:35:24;6.00;99.90
27026;DHT22;14565;48.626;8.978;2023-12-22T11:37:52;6.00;99.90
27026;DHT22;14565;48.626;8.978;2023-12-22T11:40:18;6.00;99.90
27026;DHT22;14565;48.626;8.978;2023-12-22T11:42:48;6.00;99.90
27026;DHT22;14565;48.626;8.978;2023-12-22T11:45:14;5.90;99.90
27026;DHT22;14565;48.626;8.978;2023-12-22T11:47:42;5.90;99.90
27026;DHT22;14565;48.626;8.978;2023-12-22T11:50:11;6.00;99.90
27026;DHT22;14565;48.626;8.978;2023-12-22T11:52:38;6.00;99.90
27026;DHT22;14565;48.626;8.978;2023-12-22T11:55:08;6.00;99.90
27026;DHT22;14565;48.626;8.978;2023-12-22T11:57:35;6.00;99.90
27026;DHT22;14565;48.626;8.978;2023-12-22T12:02:30;6.00;99.90
27026;DHT22;14565;48.626;8.978;2023-12-22T12:04:58;6.00;99.90
27026;DHT22;14565;48.626;8.978;2023-12-22T12:15:35;6.00;99.90
27026;DHT22;14565;48.626;8.978;2023-12-22T12:18:05;6.10;99.90
27026;DHT22;14565;48.626;8.978;2023-12-22T12:20:32;6.00;99.90
27026;DHT22;14565;48.626;8.978;2023-12-22T12:23:01;6.00;99.90
27026;DHT22;14565;48.626;8.978;2023-12-22T12:25:32;6.00;99.90
27026;DHT22;14565;48.626;8.978;2023-12-22T12:28:05;6.00;99.90
27026;DHT22;14565;48.626;8.978;2023-12-22T12:30:32;6.00;99.90
27026;DHT22;14565;48.626;8.978;2023-12-22T12:33:08;6.00;99.90
27026;DHT22;14565;48.626;8.978;2023-12-22T12:35:34;6.10;99.90
27026;DHT22;14565;48.626;8.978;2023-12-22T12:38:00;6.20;99.90
27026;DHT22;14565;48.626;8.978;2023-12-22T12:40:27;6.20;99.90
27026;DHT22;14565;48.626;8.978;2023-12-22T12:43:01;6.20;99.90
27026;DHT22;14565;48.626;8.978;2023-12-22T12:45:28;6.30;99.90
27026;DHT22;14565;48.626;8.978;2023-12-22T12:48:01;6.30;99.90
27026;DHT22;14565;48.626;8.978;2023-12-22T12:50:27;6.40;99.90
27026;DHT22;14565;48.626;8.978;2023-12-22T12:53:02;6.40;99.90
27026;DHT22;14565;48.626;8.978;2023-12-22T12:55:28;6.50;99.90
27026;DHT22;14565;48.626;8.978;2023-12-22T12:57:55;6.50;99.90
27026;DHT22;14565;48.626;8.978;2023-12-22T13:02:55;6.60;99.90
27026;DHT22;14565;48.626;8.978;2023-12-22T13:05:23;6.60;99.90
27026;DHT22;14565;48.626;8.978;2023-12-22T13:07:49;6.70;99.90
27026;DHT22;14565;48.626;8.978;2023-12-22T13:10:23;6.70;99.90
27026;DHT22;14565;48.626;8.978;2023-12-22T13:12:50;6.70;99.90
27026;DHT22;14565;48.626;8.978;2023-12-22T13:15:16;6.70;99.90
27026;DHT22;14565;48.626;8.978;2023-12-22T13:17:44;6.80;99.90
27026;DHT22;14565;48.626;8.978;2023-12-22T13:20:10;6.80;99.90
27026;DHT22;14565;48.626;8.978;2023-12-22T13:22:37;6.80;99.90
27026;DHT22;14565;48.626;8.978;2023-12-22T13:25:03;6.90;99.90
27026;DHT22;14565;48.626;8.978;2023-12-22T13:27:29;6.90;99.90
27026;DHT22;14565;48.626;8.978;2023-12-22T13:29:54;7.00;99.90
27026;DHT22;14565;48.626;8.978;2023-12-22T13:32:22;7.00;99.90
27026;DHT22;14565;48.626;8.978;2023-12-22T13:34:53;7.00;99.90
27026;DHT22;14565;48.626;8.978;2023-12-22T13:37:19;6.90;99.90
27026;DHT22;14565;48.626;8.978;2023-12-22T13:39:46;6.90;99.90
27026;DHT22;14565;48.626;8.978;2023-12-22T13:42:16;6.90;99.90
27026;DHT22;14565;48.626;8.978;2023-12-22T13:44:47;6.90;99.90
27026;DHT22;14565;48.626;8.978;2023-12-22T13:47:18;6.90;99.90
27026;DHT22;14565;48.626;8.978;2023-12-22T13:49:45;6.90;99.90
27026;DHT22;14565;48.626;8.978;2023-12-22T13:52:28;6.90;99.90
27026;DHT22;14565;48.626;8.978;2023-12-22T13:54:56;7.00;99.90
27026;DHT22;14565;48.626;8.978;2023-12-22T13:57:26;6.90;99.90
27026;DHT22;14565;48.626;8.978;2023-12-22T13:59:51;7.00;99.90
27026;DHT22;14565;48.626;8.978;2023-12-22T14:02:20;7.10;99.90
27026;DHT22;14565;48.626;8.978;2023-12-22T14:04:47;7.10;99.90
27026;DHT22;14565;48.626;8.978;2023-12-22T14:07:13;7.10;99.90
27026;DHT22;14565;48.626;8.978;2023-12-22T14:09:39;7.10;99.90
27026;DHT22;14565;48.626;8.978;2023-12-22T14:12:06;7.10;99.90
27026;DHT22;14565;48.626;8.978;2023-12-22T14:14:31;7.10;99.90
27026;DHT22;14565;48.626;8.978;2023-12-22T14:16:58;7.10;99.90
27026;DHT22;14565;48.626;8.978;2023-12-22T14:19:23;7.20;99.90
27026;DHT22;14565;48.626;8.978;2023-12-22T14:21:49;7.20;99.90
27026;DHT22;14565;48.626;8.978;2023-12-22T14:24:14;7.20;99.90
27026;DHT22;14565;48.626;8.978;2023-12-22T14:26:53;7.20;99.90
27026;DHT22;14565;48.626;8.978;2023-12-22T14:29:20;7.20;99.90
27026;DHT22;14565;48.626;8.978;2023-12-22T14:31:50;7.20;99.90
27026;DHT22;14565;48.626;8.978;2023-12-22T14:34:19;7.30;99.90
27026;DHT22;14565;48.626;8.978;2023-12-22T14:36:46;7.40;99.90
27026;DHT22;14565;48.626;8.978;2023-12-22T14:39:11;7.40;99.90
27026;DHT22;14565;48.626;8.978;2023-12-22T14:41:42;7.40;99.90
27026;DHT22;14565;48.626;8.978;2023-12-22T14:44:08;7.40;99.90
27026;DHT22;14565;48.626;8.978;2023-12-22T14:46:41;7.40;99.90
27026;DHT22;14565;48.626;8.978;2023-12-22T14:49:07;7.40;99.90
27026;DHT22;14565;48.626;8.978;2023-12-22T14:51:37;7.50;99.90
27026;DHT22;14565;48.626;8.978;2023-12-22T14:54:05;7.50;99.90
27026;DHT22;14565;48.626;8.978;2023-12-22T14:56:32;7.50;99.90
27026;DHT22;14565;48.626;8.978;2023-12-22T14:58:58;7.50;99.90
27026;DHT22;14565;48.626;8.978;2023-12-22T15:01:24;7.60;99.90
27026;DHT22;14565;48.626;8.978;2023-12-22T15:03:49;7.60;99.90
27026;DHT22;14565;48.626;8.978;2023-12-22T15:06:15;7.60;99.90
27026;DHT22;14565;48.626;8.978;2023-12-22T15:08:41;7.60;99.90
27026;DHT22;14565;48.626;8.978;2023-12-22T15:11:07;7.50;99.90
27026;DHT22;14565;48.626;8.978;2023-12-22T15:13:34;7.50;99.90
27026;DHT22;14565;48.626;8.978;2023-12-22T15:16:06;7.50;99.90
27026;DHT22;14565;48.626;8.978;2023-12-22T15:18:32;7.50;99.90
27026;DHT22;14565;48.626;8.978;2023-12-22T15:21:00;7.50;99.90
27026;DHT22;14565;48.626;8.978;2023-12-22T15:23:25;7.50;99.90
27026;DHT22;14565;48.626;8.978;2023-12-22T15:25:51;7.50;99.90
27026;DHT22;14565;48.626;8.978;2023-12-22T15:28:17;7.60;99.90
27026;DHT22;14565;48.626;8.978;2023-12-22T15:30:43;7.60;99.90
27026;DHT22;14565;48.626;8.978;2023-12-22T15:33:09;7.60;99.90
27026;DHT22;14565;48.626;8.978;2023-12-22T15:35:35;7.50;99.90
27026;DHT22;14565;48.626;8.978;2023-12-22T15:38:02;7.50;99.90
27026;DHT22;14565;48.626;8.978;2023-12-22T15:40:28;7.60;99.90
27026;DHT22;14565;48.626;8.978;2023-12-22T15:42:54;7.50;99.90
27026;DHT22;14565;48.626;8.978;2023-12-22T15:45:20;7.50;99.90
27026;DHT22;14565;48.626;8.978;2023-12-22T15:47:46;7.50;99.90
27026;DHT22;14565;48.626;8.978;2023-12-22T15:50:12;7.50;99.90
27026;DHT22;14565;48.626;8.978;2023-12-22T15:52:38;7.40;99.90
27026;DHT22;14565;48.626;8.978;2023-12-22T15:55:04;7.40;99.90
27026;DHT22;14565;48.626;8.978;2023-12-22T15:57:29;7.40;99.90